sensor_id;sensor_type;location;lat;lon;timestamp;P1;durP1;ratioP1;P2;durP2;ratioP2
11305;SDS011;5708;50.660;6.778;2023-02-11T00:00:03;23.10;;;13.30;;
11305;SDS011;5708;50.660;6.778;2023-02-11T00:02:30;22.83;;;13.13;;
11305;SDS011;5708;50.660;6.778;2023-02-11T00:04:56;24.20;;;13.82;;
11305;SDS011;5708;50.660;6.778;2023-02-11T00:07:21;23.10;;;13.25;;
11305;SDS011;5708;50.660;6.778;2023-02-11T00:09:47;23.98;;;13.25;;
11305;SDS011;5708;50.660;6.778;2023-02-11T00:12:12;22.67;;;13.55;;
11305;SDS011;5708;50.660;6.778;2023-02-11T00:14:37;24.60;;;12.45;;
11305;SDS011;5708;50.660;6.778;2023-02-11T00:17:03;23.23;;;12.95;;
11305;SDS011;5708;50.660;6.778;2023-02-11T00:19:28;24.20;;;12.70;;
11305;SDS011;5708;50.660;6.778;2023-02-11T00:21:53;22.55;;;12.68;;
11305;SDS011;5708;50.660;6.778;2023-02-11T00:24:19;24.85;;;12.00;;
11305;SDS011;5708;50.660;6.778;2023-02-11T00:26:44;22.52;;;11.70;;
11305;SDS011;5708;50.660;6.778;2023-02-11T00:29:10;18.45;;;11.45;;
11305;SDS011;5708;50.660;6.778;2023-02-11T00:31:35;23.80;;;11.45;;
11305;SDS011;5708;50.660;6.778;2023-02-11T00:34:00;24.50;;;13.15;;
11305;SDS011;5708;50.660;6.778;2023-02-11T00:36:26;22.27;;;11.90;;
11305;SDS011;5708;50.660;6.778;2023-02-11T00:38:53;19.33;;;10.82;;
11305;SDS011;5708;50.660;6.778;2023-02-11T00:41:20;21.27;;;10.63;;
11305;SDS011;5708;50.660;6.778;2023-02-11T00:43:46;18.73;;;11.30;;
11305;SDS011;5708;50.660;6.778;2023-02-11T00:46:12;19.13;;;10.43;;
11305;SDS011;5708;50.660;6.778;2023-02-11T00:48:37;17.67;;;10.45;;
11305;SDS011;5708;50.660;6.778;2023-02-11T00:51:03;20.02;;;10.10;;
11305;SDS011;5708;50.660;6.778;2023-02-11T00:53:29;18.33;;;11.13;;
11305;SDS011;5708;50.660;6.778;2023-02-11T00:55:55;18.13;;;10.73;;
11305;SDS011;5708;50.660;6.778;2023-02-11T00:58:20;18.20;;;10.75;;
11305;SDS011;5708;50.660;6.778;2023-02-11T01:00:46;20.25;;;11.32;;
11305;SDS011;5708;50.660;6.778;2023-02-11T01:03:12;17.85;;;10.52;;
11305;SDS011;5708;50.660;6.778;2023-02-11T01:05:37;18.10;;;11.05;;
11305;SDS011;5708;50.660;6.778;2023-02-11T01:08:02;19.02;;;10.23;;
11305;SDS011;5708;50.660;6.778;2023-02-11T01:10:28;19.70;;;10.13;;
11305;SDS011;5708;50.660;6.778;2023-02-11T01:12:53;18.48;;;10.48;;
11305;SDS011;5708;50.660;6.778;2023-02-11T01:15:19;17.52;;;10.23;;
11305;SDS011;5708;50.660;6.778;2023-02-11T01:17:45;16.45;;;10.13;;
11305;SDS011;5708;50.660;6.778;2023-02-11T01:20:13;19.73;;;10.35;;
11305;SDS011;5708;50.660;6.778;2023-02-11T01:22:40;20.65;;;10.95;;
11305;SDS011;5708;50.660;6.778;2023-02-11T01:25:06;20.17;;;10.77;;
11305;SDS011;5708;50.660;6.778;2023-02-11T01:27:32;17.90;;;10.30;;
11305;SDS011;5708;50.660;6.778;2023-02-11T01:29:58;19.73;;;11.45;;
11305;SDS011;5708;50.660;6.778;2023-02-11T01:32:23;23.73;;;11.45;;
11305;SDS011;5708;50.660;6.778;2023-02-11T01:34:48;21.20;;;10.65;;
11305;SDS011;5708;50.660;6.778;2023-02-11T01:37:14;18.85;;;10.73;;
11305;SDS011;5708;50.660;6.778;2023-02-11T01:39:39;19.60;;;10.82;;
11305;SDS011;5708;50.660;6.778;2023-02-11T01:42:05;20.52;;;10.52;;
11305;SDS011;5708;50.660;6.778;2023-02-11T01:44:31;18.38;;;11.77;;
11305;SDS011;5708;50.660;6.778;2023-02-11T01:47:01;17.02;;;9.98;;
11305;SDS011;5708;50.660;6.778;2023-02-11T01:49:49;22.20;;;10.68;;
11305;SDS011;5708;50.660;6.778;2023-02-11T01:52:25;21.00;;;10.93;;
11305;SDS011;5708;50.660;6.778;2023-02-11T01:55:02;18.17;;;10.15;;
11305;SDS011;5708;50.660;6.778;2023-02-11T01:57:50;17.55;;;9.82;;
11305;SDS011;5708;50.660;6.778;2023-02-11T02:00:19;18.15;;;10.30;;
11305;SDS011;5708;50.660;6.778;2023-02-11T02:05:31;18.20;;;10.57;;
11305;SDS011;5708;50.660;6.778;2023-02-11T02:10:28;21.02;;;10.45;;
11305;SDS011;5708;50.660;6.778;2023-02-11T02:12:54;20.67;;;10.52;;
11305;SDS011;5708;50.660;6.778;2023-02-11T02:15:21;18.75;;;10.43;;
11305;SDS011;5708;50.660;6.778;2023-02-11T02:17:53;17.67;;;9.93;;
11305;SDS011;5708;50.660;6.778;2023-02-11T02:20:47;20.80;;;10.68;;
11305;SDS011;5708;50.660;6.778;2023-02-11T02:29:19;21.25;;;10.82;;
11305;SDS011;5708;50.660;6.778;2023-02-11T02:35:10;21.73;;;11.18;;
11305;SDS011;5708;50.660;6.778;2023-02-11T02:38:09;23.33;;;12.07;;
11305;SDS011;5708;50.660;6.778;2023-02-11T02:43:24;25.20;;;13.65;;
11305;SDS011;5708;50.660;6.778;2023-02-11T02:45:50;28.25;;;14.45;;
11305;SDS011;5708;50.660;6.778;2023-02-11T03:04:41;24.83;;;14.00;;
11305;SDS011;5708;50.660;6.778;2023-02-11T03:09:58;24.15;;;12.85;;
11305;SDS011;5708;50.660;6.778;2023-02-11T03:12:28;22.48;;;13.00;;
11305;SDS011;5708;50.660;6.778;2023-02-11T03:14:55;27.63;;;13.95;;
11305;SDS011;5708;50.660;6.778;2023-02-11T03:17:21;26.33;;;14.40;;
11305;SDS011;5708;50.660;6.778;2023-02-11T03:19:47;24.80;;;13.63;;
11305;SDS011;5708;50.660;6.778;2023-02-11T03:22:29;23.02;;;13.50;;
11305;SDS011;5708;50.660;6.778;2023-02-11T03:25:01;21.98;;;12.93;;
11305;SDS011;5708;50.660;6.778;2023-02-11T03:27:37;27.38;;;14.27;;
11305;SDS011;5708;50.660;6.778;2023-02-11T03:30:31;25.70;;;13.70;;
11305;SDS011;5708;50.660;6.778;2023-02-11T03:33:12;25.20;;;14.25;;
11305;SDS011;5708;50.660;6.778;2023-02-11T03:35:55;29.27;;;15.35;;
11305;SDS011;5708;50.660;6.778;2023-02-11T03:38:31;29.67;;;15.95;;
11305;SDS011;5708;50.660;6.778;2023-02-11T03:40:57;32.13;;;18.23;;
11305;SDS011;5708;50.660;6.778;2023-02-11T03:43:29;34.70;;;19.00;;
11305;SDS011;5708;50.660;6.778;2023-02-11T03:45:57;36.55;;;18.83;;
11305;SDS011;5708;50.660;6.778;2023-02-11T03:48:25;41.00;;;19.92;;
11305;SDS011;5708;50.660;6.778;2023-02-11T03:50:54;34.55;;;18.73;;
11305;SDS011;5708;50.660;6.778;2023-02-11T03:53:20;34.25;;;17.75;;
11305;SDS011;5708;50.660;6.778;2023-02-11T03:55:46;32.15;;;17.98;;
11305;SDS011;5708;50.660;6.778;2023-02-11T03:58:13;31.38;;;16.42;;
11305;SDS011;5708;50.660;6.778;2023-02-11T04:00:40;32.53;;;17.80;;
11305;SDS011;5708;50.660;6.778;2023-02-11T04:03:07;29.67;;;16.75;;
11305;SDS011;5708;50.660;6.778;2023-02-11T04:05:33;35.60;;;17.67;;
11305;SDS011;5708;50.660;6.778;2023-02-11T04:07:58;35.40;;;16.55;;
11305;SDS011;5708;50.660;6.778;2023-02-11T04:10:24;28.90;;;17.00;;
11305;SDS011;5708;50.660;6.778;2023-02-11T04:12:49;31.10;;;15.88;;
11305;SDS011;5708;50.660;6.778;2023-02-11T04:15:15;28.38;;;16.10;;
11305;SDS011;5708;50.660;6.778;2023-02-11T04:17:40;30.10;;;16.08;;
11305;SDS011;5708;50.660;6.778;2023-02-11T04:20:06;28.75;;;15.48;;
11305;SDS011;5708;50.660;6.778;2023-02-11T04:22:32;29.88;;;16.27;;
11305;SDS011;5708;50.660;6.778;2023-02-11T04:24:57;29.10;;;15.20;;
11305;SDS011;5708;50.660;6.778;2023-02-11T04:27:22;31.90;;;16.27;;
11305;SDS011;5708;50.660;6.778;2023-02-11T04:29:48;31.05;;;15.77;;
11305;SDS011;5708;50.660;6.778;2023-02-11T04:32:13;25.80;;;14.60;;
11305;SDS011;5708;50.660;6.778;2023-02-11T04:34:39;29.30;;;16.58;;
11305;SDS011;5708;50.660;6.778;2023-02-11T04:37:04;27.23;;;15.70;;
11305;SDS011;5708;50.660;6.778;2023-02-11T04:39:30;38.28;;;16.98;;
11305;SDS011;5708;50.660;6.778;2023-02-11T04:41:55;31.65;;;16.67;;
11305;SDS011;5708;50.660;6.778;2023-02-11T04:44:20;31.92;;;17.30;;
11305;SDS011;5708;50.660;6.778;2023-02-11T04:46:46;33.88;;;16.75;;
11305;SDS011;5708;50.660;6.778;2023-02-11T04:49:12;35.72;;;17.77;;
11305;SDS011;5708;50.660;6.778;2023-02-11T04:51:38;33.83;;;18.00;;
11305;SDS011;5708;50.660;6.778;2023-02-11T04:54:03;33.22;;;17.73;;
11305;SDS011;5708;50.660;6.778;2023-02-11T04:56:29;34.75;;;17.60;;
11305;SDS011;5708;50.660;6.778;2023-02-11T04:58:54;29.15;;;16.42;;
11305;SDS011;5708;50.660;6.778;2023-02-11T05:01:20;33.20;;;17.15;;
11305;SDS011;5708;50.660;6.778;2023-02-11T05:03:45;32.03;;;17.48;;
11305;SDS011;5708;50.660;6.778;2023-02-11T05:06:11;34.80;;;18.27;;
11305;SDS011;5708;50.660;6.778;2023-02-11T05:08:36;37.15;;;18.10;;
11305;SDS011;5708;50.660;6.778;2023-02-11T05:11:02;34.88;;;17.35;;
11305;SDS011;5708;50.660;6.778;2023-02-11T05:13:28;30.60;;;16.38;;
11305;SDS011;5708;50.660;6.778;2023-02-11T05:15:53;29.83;;;17.00;;
11305;SDS011;5708;50.660;6.778;2023-02-11T05:18:19;31.08;;;16.77;;
11305;SDS011;5708;50.660;6.778;2023-02-11T05:20:45;31.83;;;15.88;;
11305;SDS011;5708;50.660;6.778;2023-02-11T05:23:10;33.88;;;16.27;;
11305;SDS011;5708;50.660;6.778;2023-02-11T05:25:36;33.08;;;15.68;;
11305;SDS011;5708;50.660;6.778;2023-02-11T05:28:01;32.05;;;15.70;;
11305;SDS011;5708;50.660;6.778;2023-02-11T05:30:27;32.65;;;15.20;;
11305;SDS011;5708;50.660;6.778;2023-02-11T05:32:53;32.13;;;15.85;;
11305;SDS011;5708;50.660;6.778;2023-02-11T05:35:18;29.23;;;14.68;;
11305;SDS011;5708;50.660;6.778;2023-02-11T05:37:43;27.55;;;15.40;;
11305;SDS011;5708;50.660;6.778;2023-02-11T05:40:09;28.35;;;15.52;;
11305;SDS011;5708;50.660;6.778;2023-02-11T05:42:35;28.20;;;14.82;;
11305;SDS011;5708;50.660;6.778;2023-02-11T05:45:00;26.73;;;14.93;;
11305;SDS011;5708;50.660;6.778;2023-02-11T05:47:29;25.90;;;15.15;;
11305;SDS011;5708;50.660;6.778;2023-02-11T05:49:54;26.40;;;14.65;;
11305;SDS011;5708;50.660;6.778;2023-02-11T05:52:20;27.83;;;16.10;;
11305;SDS011;5708;50.660;6.778;2023-02-11T05:54:45;30.98;;;15.00;;
11305;SDS011;5708;50.660;6.778;2023-02-11T05:57:11;25.05;;;13.38;;
11305;SDS011;5708;50.660;6.778;2023-02-11T05:59:36;26.42;;;14.57;;
11305;SDS011;5708;50.660;6.778;2023-02-11T06:02:02;27.00;;;14.20;;
11305;SDS011;5708;50.660;6.778;2023-02-11T06:04:27;25.50;;;13.75;;
11305;SDS011;5708;50.660;6.778;2023-02-11T06:06:53;26.75;;;13.63;;
11305;SDS011;5708;50.660;6.778;2023-02-11T06:09:18;26.42;;;13.70;;
11305;SDS011;5708;50.660;6.778;2023-02-11T06:11:44;25.00;;;13.88;;
11305;SDS011;5708;50.660;6.778;2023-02-11T06:14:09;26.02;;;14.20;;
11305;SDS011;5708;50.660;6.778;2023-02-11T06:16:35;25.42;;;13.63;;
11305;SDS011;5708;50.660;6.778;2023-02-11T06:19:00;27.10;;;14.00;;
11305;SDS011;5708;50.660;6.778;2023-02-11T06:21:26;29.02;;;14.20;;
11305;SDS011;5708;50.660;6.778;2023-02-11T06:23:51;28.48;;;14.63;;
11305;SDS011;5708;50.660;6.778;2023-02-11T06:26:18;26.83;;;13.40;;
11305;SDS011;5708;50.660;6.778;2023-02-11T06:28:45;24.73;;;12.93;;
11305;SDS011;5708;50.660;6.778;2023-02-11T06:31:10;25.02;;;13.10;;
11305;SDS011;5708;50.660;6.778;2023-02-11T06:33:36;23.02;;;12.23;;
11305;SDS011;5708;50.660;6.778;2023-02-11T06:36:02;21.98;;;12.05;;
11305;SDS011;5708;50.660;6.778;2023-02-11T06:38:29;22.10;;;11.38;;
11305;SDS011;5708;50.660;6.778;2023-02-11T06:40:54;20.35;;;10.93;;
11305;SDS011;5708;50.660;6.778;2023-02-11T06:43:20;21.02;;;10.52;;
11305;SDS011;5708;50.660;6.778;2023-02-11T06:45:50;19.92;;;11.18;;
11305;SDS011;5708;50.660;6.778;2023-02-11T06:48:16;20.08;;;10.55;;
11305;SDS011;5708;50.660;6.778;2023-02-11T06:50:42;20.65;;;10.65;;
11305;SDS011;5708;50.660;6.778;2023-02-11T06:53:07;18.70;;;10.38;;
11305;SDS011;5708;50.660;6.778;2023-02-11T06:55:33;21.60;;;11.32;;
11305;SDS011;5708;50.660;6.778;2023-02-11T06:57:59;21.35;;;11.02;;
11305;SDS011;5708;50.660;6.778;2023-02-11T07:00:24;20.95;;;11.75;;
11305;SDS011;5708;50.660;6.778;2023-02-11T07:02:50;21.80;;;10.85;;
11305;SDS011;5708;50.660;6.778;2023-02-11T07:05:15;21.88;;;11.13;;
11305;SDS011;5708;50.660;6.778;2023-02-11T07:07:41;19.95;;;10.35;;
11305;SDS011;5708;50.660;6.778;2023-02-11T07:10:06;20.35;;;11.35;;
11305;SDS011;5708;50.660;6.778;2023-02-11T07:12:32;18.23;;;10.50;;
11305;SDS011;5708;50.660;6.778;2023-02-11T07:14:57;18.65;;;10.93;;
11305;SDS011;5708;50.660;6.778;2023-02-11T07:17:23;19.42;;;9.95;;
11305;SDS011;5708;50.660;6.778;2023-02-11T07:19:48;16.42;;;9.35;;
11305;SDS011;5708;50.660;6.778;2023-02-11T07:22:14;20.02;;;11.02;;
11305;SDS011;5708;50.660;6.778;2023-02-11T07:24:39;17.45;;;9.73;;
11305;SDS011;5708;50.660;6.778;2023-02-11T07:27:04;20.63;;;10.27;;
11305;SDS011;5708;50.660;6.778;2023-02-11T07:29:30;17.67;;;9.27;;
11305;SDS011;5708;50.660;6.778;2023-02-11T07:31:56;16.25;;;9.05;;
11305;SDS011;5708;50.660;6.778;2023-02-11T07:34:21;18.40;;;9.32;;
11305;SDS011;5708;50.660;6.778;2023-02-11T07:36:46;18.23;;;9.90;;
11305;SDS011;5708;50.660;6.778;2023-02-11T07:39:13;19.33;;;9.82;;
11305;SDS011;5708;50.660;6.778;2023-02-11T07:41:38;16.35;;;9.77;;
11305;SDS011;5708;50.660;6.778;2023-02-11T07:44:04;17.63;;;9.82;;
11305;SDS011;5708;50.660;6.778;2023-02-11T07:46:29;16.33;;;9.57;;
11305;SDS011;5708;50.660;6.778;2023-02-11T07:48:55;16.25;;;9.20;;
11305;SDS011;5708;50.660;6.778;2023-02-11T07:51:24;17.52;;;9.75;;
11305;SDS011;5708;50.660;6.778;2023-02-11T07:53:54;16.17;;;9.70;;
11305;SDS011;5708;50.660;6.778;2023-02-11T07:56:20;16.63;;;9.25;;
11305;SDS011;5708;50.660;6.778;2023-02-11T07:58:46;18.45;;;10.15;;
11305;SDS011;5708;50.660;6.778;2023-02-11T08:01:13;16.85;;;9.75;;
11305;SDS011;5708;50.660;6.778;2023-02-11T08:03:40;18.90;;;10.23;;
11305;SDS011;5708;50.660;6.778;2023-02-11T08:06:07;19.70;;;9.80;;
11305;SDS011;5708;50.660;6.778;2023-02-11T08:08:36;18.67;;;10.18;;
11305;SDS011;5708;50.660;6.778;2023-02-11T08:11:09;17.15;;;9.75;;
11305;SDS011;5708;50.660;6.778;2023-02-11T08:13:49;16.17;;;9.00;;
11305;SDS011;5708;50.660;6.778;2023-02-11T08:16:19;16.52;;;9.18;;
11305;SDS011;5708;50.660;6.778;2023-02-11T08:18:49;21.45;;;13.10;;
11305;SDS011;5708;50.660;6.778;2023-02-11T08:21:15;20.58;;;13.88;;
11305;SDS011;5708;50.660;6.778;2023-02-11T08:23:41;19.05;;;12.27;;
11305;SDS011;5708;50.660;6.778;2023-02-11T08:26:09;17.80;;;11.05;;
11305;SDS011;5708;50.660;6.778;2023-02-11T08:28:37;18.60;;;10.98;;
11305;SDS011;5708;50.660;6.778;2023-02-11T08:31:04;16.45;;;9.75;;
11305;SDS011;5708;50.660;6.778;2023-02-11T08:33:33;16.45;;;9.68;;
11305;SDS011;5708;50.660;6.778;2023-02-11T08:35:59;14.63;;;9.18;;
11305;SDS011;5708;50.660;6.778;2023-02-11T08:38:25;17.73;;;9.73;;
11305;SDS011;5708;50.660;6.778;2023-02-11T08:40:50;16.88;;;9.82;;
11305;SDS011;5708;50.660;6.778;2023-02-11T08:43:16;14.27;;;8.70;;
11305;SDS011;5708;50.660;6.778;2023-02-11T08:45:41;14.48;;;8.63;;
11305;SDS011;5708;50.660;6.778;2023-02-11T08:48:06;14.02;;;8.68;;
11305;SDS011;5708;50.660;6.778;2023-02-11T08:50:32;14.07;;;8.80;;
11305;SDS011;5708;50.660;6.778;2023-02-11T08:52:58;13.70;;;8.05;;
11305;SDS011;5708;50.660;6.778;2023-02-11T08:55:23;14.35;;;9.35;;
11305;SDS011;5708;50.660;6.778;2023-02-11T08:57:48;16.40;;;9.55;;
11305;SDS011;5708;50.660;6.778;2023-02-11T09:00:14;17.38;;;9.93;;
11305;SDS011;5708;50.660;6.778;2023-02-11T09:02:40;17.38;;;10.10;;
11305;SDS011;5708;50.660;6.778;2023-02-11T09:05:05;24.77;;;14.80;;
11305;SDS011;5708;50.660;6.778;2023-02-11T09:07:31;32.53;;;20.73;;
11305;SDS011;5708;50.660;6.778;2023-02-11T09:09:57;25.98;;;14.70;;
11305;SDS011;5708;50.660;6.778;2023-02-11T09:12:22;19.60;;;11.88;;
11305;SDS011;5708;50.660;6.778;2023-02-11T09:14:47;17.08;;;10.40;;
11305;SDS011;5708;50.660;6.778;2023-02-11T09:17:13;16.33;;;9.57;;
11305;SDS011;5708;50.660;6.778;2023-02-11T09:19:38;18.20;;;10.07;;
11305;SDS011;5708;50.660;6.778;2023-02-11T09:22:03;16.40;;;10.05;;
11305;SDS011;5708;50.660;6.778;2023-02-11T09:24:29;15.20;;;9.55;;
11305;SDS011;5708;50.660;6.778;2023-02-11T09:26:54;15.13;;;9.15;;
11305;SDS011;5708;50.660;6.778;2023-02-11T09:29:20;15.88;;;9.07;;
11305;SDS011;5708;50.660;6.778;2023-02-11T09:31:45;14.27;;;8.90;;
11305;SDS011;5708;50.660;6.778;2023-02-11T09:34:11;14.63;;;9.15;;
11305;SDS011;5708;50.660;6.778;2023-02-11T09:36:37;14.60;;;8.77;;
11305;SDS011;5708;50.660;6.778;2023-02-11T09:39:04;13.35;;;8.65;;
11305;SDS011;5708;50.660;6.778;2023-02-11T09:41:34;15.60;;;8.68;;
11305;SDS011;5708;50.660;6.778;2023-02-11T09:44:24;15.77;;;9.20;;
11305;SDS011;5708;50.660;6.778;2023-02-11T09:46:56;14.98;;;8.80;;
11305;SDS011;5708;50.660;6.778;2023-02-11T09:49:34;15.23;;;9.07;;
11305;SDS011;5708;50.660;6.778;2023-02-11T09:55:00;15.77;;;9.82;;
11305;SDS011;5708;50.660;6.778;2023-02-11T09:57:31;17.27;;;9.93;;
11305;SDS011;5708;50.660;6.778;2023-02-11T09:59:58;16.17;;;9.93;;
11305;SDS011;5708;50.660;6.778;2023-02-11T10:02:30;15.90;;;9.57;;
11305;SDS011;5708;50.660;6.778;2023-02-11T10:08:08;16.17;;;9.82;;
11305;SDS011;5708;50.660;6.778;2023-02-11T10:13:43;14.75;;;9.30;;
11305;SDS011;5708;50.660;6.778;2023-02-11T10:16:20;14.45;;;9.23;;
11305;SDS011;5708;50.660;6.778;2023-02-11T10:24:47;19.08;;;9.98;;
11305;SDS011;5708;50.660;6.778;2023-02-11T10:27:16;16.65;;;9.55;;
11305;SDS011;5708;50.660;6.778;2023-02-11T10:29:48;15.93;;;9.32;;
11305;SDS011;5708;50.660;6.778;2023-02-11T10:34:47;14.75;;;9.10;;
11305;SDS011;5708;50.660;6.778;2023-02-11T10:37:13;17.52;;;10.85;;
11305;SDS011;5708;50.660;6.778;2023-02-11T10:39:39;14.95;;;8.98;;
11305;SDS011;5708;50.660;6.778;2023-02-11T10:42:06;17.30;;;10.02;;
11305;SDS011;5708;50.660;6.778;2023-02-11T10:44:37;15.35;;;8.95;;
11305;SDS011;5708;50.660;6.778;2023-02-11T10:47:08;14.68;;;9.15;;
11305;SDS011;5708;50.660;6.778;2023-02-11T10:49:41;15.25;;;9.10;;
11305;SDS011;5708;50.660;6.778;2023-02-11T10:54:38;15.02;;;8.95;;
11305;SDS011;5708;50.660;6.778;2023-02-11T10:57:04;14.20;;;8.50;;
11305;SDS011;5708;50.660;6.778;2023-02-11T10:59:35;16.13;;;8.38;;
11305;SDS011;5708;50.660;6.778;2023-02-11T11:02:06;13.18;;;7.80;;
11305;SDS011;5708;50.660;6.778;2023-02-11T11:04:44;14.63;;;8.30;;
11305;SDS011;5708;50.660;6.778;2023-02-11T11:09:54;14.23;;;8.65;;
11305;SDS011;5708;50.660;6.778;2023-02-11T11:17:38;14.32;;;8.45;;
11305;SDS011;5708;50.660;6.778;2023-02-11T11:20:52;14.05;;;8.02;;
11305;SDS011;5708;50.660;6.778;2023-02-11T11:23:06;12.43;;;7.57;;
11305;SDS011;5708;50.660;6.778;2023-02-11T11:25:35;17.50;;;8.20;;
11305;SDS011;5708;50.660;6.778;2023-02-11T11:28:03;13.15;;;6.95;;
11305;SDS011;5708;50.660;6.778;2023-02-11T11:30:33;11.57;;;7.32;;
11305;SDS011;5708;50.660;6.778;2023-02-11T11:33:03;11.27;;;6.30;;
11305;SDS011;5708;50.660;6.778;2023-02-11T11:35:29;12.80;;;7.30;;
11305;SDS011;5708;50.660;6.778;2023-02-11T11:38:00;13.13;;;7.65;;
11305;SDS011;5708;50.660;6.778;2023-02-11T11:40:28;12.52;;;7.32;;
11305;SDS011;5708;50.660;6.778;2023-02-11T11:43:16;13.15;;;7.88;;
11305;SDS011;5708;50.660;6.778;2023-02-11T11:45:57;12.15;;;7.25;;
11305;SDS011;5708;50.660;6.778;2023-02-11T11:48:42;12.75;;;7.63;;
11305;SDS011;5708;50.660;6.778;2023-02-11T11:51:11;15.52;;;8.38;;
11305;SDS011;5708;50.660;6.778;2023-02-11T11:53:42;14.95;;;8.25;;
11305;SDS011;5708;50.660;6.778;2023-02-11T11:56:14;16.05;;;9.88;;
11305;SDS011;5708;50.660;6.778;2023-02-11T11:58:41;17.60;;;9.82;;
11305;SDS011;5708;50.660;6.778;2023-02-11T12:14:54;15.43;;;9.73;;
11305;SDS011;5708;50.660;6.778;2023-02-11T12:28:25;15.25;;;8.77;;
11305;SDS011;5708;50.660;6.778;2023-02-11T12:45:06;15.32;;;8.77;;
11305;SDS011;5708;50.660;6.778;2023-02-11T12:47:48;13.48;;;8.43;;
11305;SDS011;5708;50.660;6.778;2023-02-11T12:50:38;12.93;;;8.30;;
11305;SDS011;5708;50.660;6.778;2023-02-11T12:56:25;16.63;;;9.73;;
11305;SDS011;5708;50.660;6.778;2023-02-11T12:58:55;15.48;;;9.27;;
11305;SDS011;5708;50.660;6.778;2023-02-11T13:01:25;15.15;;;10.00;;
11305;SDS011;5708;50.660;6.778;2023-02-11T13:04:37;16.77;;;10.52;;
11305;SDS011;5708;50.660;6.778;2023-02-11T13:06:50;15.85;;;10.10;;
11305;SDS011;5708;50.660;6.778;2023-02-11T13:09:25;15.32;;;9.77;;
11305;SDS011;5708;50.660;6.778;2023-02-11T13:11:54;15.82;;;9.45;;
11305;SDS011;5708;50.660;6.778;2023-02-11T13:16:50;15.98;;;10.10;;
11305;SDS011;5708;50.660;6.778;2023-02-11T13:19:25;18.40;;;11.73;;
11305;SDS011;5708;50.660;6.778;2023-02-11T13:24:45;22.60;;;13.27;;
11305;SDS011;5708;50.660;6.778;2023-02-11T13:37:52;20.65;;;12.70;;
11305;SDS011;5708;50.660;6.778;2023-02-11T13:42:53;21.67;;;13.32;;
11305;SDS011;5708;50.660;6.778;2023-02-11T13:47:59;21.75;;;13.60;;
11305;SDS011;5708;50.660;6.778;2023-02-11T13:50:26;23.70;;;14.50;;
11305;SDS011;5708;50.660;6.778;2023-02-11T13:52:59;24.52;;;14.98;;
11305;SDS011;5708;50.660;6.778;2023-02-11T13:55:26;23.52;;;14.95;;
11305;SDS011;5708;50.660;6.778;2023-02-11T14:03:32;26.52;;;15.95;;
11305;SDS011;5708;50.660;6.778;2023-02-11T14:09:07;24.63;;;15.60;;
11305;SDS011;5708;50.660;6.778;2023-02-11T14:19:30;22.65;;;14.45;;
11305;SDS011;5708;50.660;6.778;2023-02-11T14:22:00;26.50;;;15.68;;
11305;SDS011;5708;50.660;6.778;2023-02-11T14:26:59;24.50;;;14.30;;
11305;SDS011;5708;50.660;6.778;2023-02-11T14:29:34;24.00;;;14.63;;
11305;SDS011;5708;50.660;6.778;2023-02-11T14:40:30;22.35;;;14.10;;
11305;SDS011;5708;50.660;6.778;2023-02-11T14:43:11;21.02;;;12.70;;
11305;SDS011;5708;50.660;6.778;2023-02-11T14:45:47;21.00;;;13.00;;
11305;SDS011;5708;50.660;6.778;2023-02-11T14:48:17;20.58;;;13.45;;
11305;SDS011;5708;50.660;6.778;2023-02-11T14:50:45;20.95;;;13.80;;
11305;SDS011;5708;50.660;6.778;2023-02-11T14:53:22;20.95;;;12.68;;
11305;SDS011;5708;50.660;6.778;2023-02-11T14:55:49;21.83;;;13.23;;
11305;SDS011;5708;50.660;6.778;2023-02-11T14:58:23;23.17;;;13.07;;
11305;SDS011;5708;50.660;6.778;2023-02-11T15:03:23;20.55;;;12.75;;
11305;SDS011;5708;50.660;6.778;2023-02-11T15:11:21;19.30;;;12.38;;
11305;SDS011;5708;50.660;6.778;2023-02-11T15:13:48;24.48;;;13.80;;
11305;SDS011;5708;50.660;6.778;2023-02-11T15:16:19;20.85;;;13.80;;
11305;SDS011;5708;50.660;6.778;2023-02-11T15:18:48;20.50;;;12.85;;
11305;SDS011;5708;50.660;6.778;2023-02-11T15:21:31;25.20;;;14.40;;
11305;SDS011;5708;50.660;6.778;2023-02-11T15:24:05;29.23;;;16.67;;
11305;SDS011;5708;50.660;6.778;2023-02-11T15:26:46;21.17;;;13.77;;
11305;SDS011;5708;50.660;6.778;2023-02-11T15:29:22;19.92;;;12.60;;
11305;SDS011;5708;50.660;6.778;2023-02-11T15:32:01;20.33;;;12.75;;
11305;SDS011;5708;50.660;6.778;2023-02-11T15:34:47;24.13;;;15.52;;
11305;SDS011;5708;50.660;6.778;2023-02-11T15:37:21;22.48;;;15.00;;
11305;SDS011;5708;50.660;6.778;2023-02-11T15:39:48;21.90;;;14.10;;
11305;SDS011;5708;50.660;6.778;2023-02-11T15:42:29;21.42;;;13.98;;
11305;SDS011;5708;50.660;6.778;2023-02-11T15:45:09;19.42;;;12.95;;
11305;SDS011;5708;50.660;6.778;2023-02-11T15:47:38;18.48;;;12.35;;
11305;SDS011;5708;50.660;6.778;2023-02-11T15:50:04;18.95;;;12.13;;
11305;SDS011;5708;50.660;6.778;2023-02-11T15:52:30;18.30;;;11.55;;
11305;SDS011;5708;50.660;6.778;2023-02-11T15:54:56;18.05;;;11.70;;
11305;SDS011;5708;50.660;6.778;2023-02-11T15:57:24;19.52;;;12.98;;
11305;SDS011;5708;50.660;6.778;2023-02-11T15:59:50;17.63;;;11.45;;
11305;SDS011;5708;50.660;6.778;2023-02-11T16:02:18;16.73;;;10.80;;
11305;SDS011;5708;50.660;6.778;2023-02-11T16:04:50;16.75;;;11.00;;
11305;SDS011;5708;50.660;6.778;2023-02-11T16:10:02;15.95;;;10.45;;
11305;SDS011;5708;50.660;6.778;2023-02-11T16:12:28;17.00;;;11.18;;
11305;SDS011;5708;50.660;6.778;2023-02-11T16:14:54;18.30;;;11.98;;
11305;SDS011;5708;50.660;6.778;2023-02-11T16:17:24;18.33;;;11.00;;
11305;SDS011;5708;50.660;6.778;2023-02-11T16:19:52;15.75;;;10.23;;
11305;SDS011;5708;50.660;6.778;2023-02-11T16:22:19;15.95;;;10.48;;
11305;SDS011;5708;50.660;6.778;2023-02-11T16:24:47;15.00;;;10.25;;
11305;SDS011;5708;50.660;6.778;2023-02-11T16:27:24;16.92;;;10.00;;
11305;SDS011;5708;50.660;6.778;2023-02-11T16:29:54;16.30;;;9.75;;
11305;SDS011;5708;50.660;6.778;2023-02-11T16:32:25;16.67;;;10.07;;
11305;SDS011;5708;50.660;6.778;2023-02-11T16:34:52;13.25;;;9.25;;
11305;SDS011;5708;50.660;6.778;2023-02-11T16:37:19;14.82;;;9.90;;
11305;SDS011;5708;50.660;6.778;2023-02-11T16:39:44;15.48;;;10.00;;
11305;SDS011;5708;50.660;6.778;2023-02-11T16:42:10;13.75;;;9.02;;
11305;SDS011;5708;50.660;6.778;2023-02-11T16:44:36;13.80;;;9.23;;
11305;SDS011;5708;50.660;6.778;2023-02-11T16:47:02;17.95;;;10.73;;
11305;SDS011;5708;50.660;6.778;2023-02-11T16:49:30;15.70;;;10.43;;
11305;SDS011;5708;50.660;6.778;2023-02-11T16:51:58;14.75;;;9.63;;
11305;SDS011;5708;50.660;6.778;2023-02-11T16:54:28;15.07;;;9.57;;
11305;SDS011;5708;50.660;6.778;2023-02-11T16:56:53;14.05;;;9.32;;
11305;SDS011;5708;50.660;6.778;2023-02-11T16:59:19;14.25;;;9.10;;
11305;SDS011;5708;50.660;6.778;2023-02-11T17:01:44;13.65;;;9.20;;
11305;SDS011;5708;50.660;6.778;2023-02-11T17:04:15;14.38;;;9.50;;
11305;SDS011;5708;50.660;6.778;2023-02-11T17:06:43;18.10;;;11.55;;
11305;SDS011;5708;50.660;6.778;2023-02-11T17:09:10;18.80;;;11.73;;
11305;SDS011;5708;50.660;6.778;2023-02-11T17:11:40;19.58;;;12.60;;
11305;SDS011;5708;50.660;6.778;2023-02-11T17:14:05;20.65;;;13.63;;
11305;SDS011;5708;50.660;6.778;2023-02-11T17:16:31;21.85;;;14.52;;
11305;SDS011;5708;50.660;6.778;2023-02-11T17:18:56;21.45;;;13.60;;
11305;SDS011;5708;50.660;6.778;2023-02-11T17:21:22;25.58;;;16.58;;
11305;SDS011;5708;50.660;6.778;2023-02-11T17:23:49;22.48;;;14.05;;
11305;SDS011;5708;50.660;6.778;2023-02-11T17:26:15;26.27;;;15.20;;
11305;SDS011;5708;50.660;6.778;2023-02-11T17:28:40;21.35;;;13.77;;
11305;SDS011;5708;50.660;6.778;2023-02-11T17:31:06;21.73;;;14.65;;